sensor_id;sensor_type;location;lat;lon;timestamp;pressure;altitude;pressure_sealevel;temperature;humidity
42511;BME280;28141;51.120;17.114;2022-12-18T00:01:59;103267.97;;;21.38;23.66
42511;BME280;28141;51.120;17.114;2022-12-18T00:05:03;103276.23;;;21.38;23.64
42511;BME280;28141;51.120;17.114;2022-12-18T00:08:06;103282.05;;;21.35;23.66
42511;BME280;28141;51.120;17.114;2022-12-18T00:11:16;103272.77;;;21.36;23.73
42511;BME280;28141;51.120;17.114;2022-12-18T00:14:20;103276.84;;;21.32;23.93
42511;BME280;28141;51.120;17.114;2022-12-18T00:17:23;103286.70;;;21.34;23.75
42511;BME280;28141;51.120;17.114;2022-12-18T00:20:27;103292.37;;;21.33;23.66
42511;BME280;28141;51.120;17.114;2022-12-18T00:23:32;103296.27;;;21.40;23.43
42511;BME280;28141;51.120;17.114;2022-12-18T00:26:37;103292.06;;;21.36;23.40
42511;BME280;28141;51.120;17.114;2022-12-18T00:29:40;103291.43;;;21.42;23.57
42511;BME280;28141;51.120;17.114;2022-12-18T00:32:44;103295.92;;;21.43;23.51
42511;BME280;28141;51.120;17.114;2022-12-18T00:35:47;103304.20;;;21.43;23.64
42511;BME280;28141;51.120;17.114;2022-12-18T00:38:52;103308.77;;;21.34;23.67
42511;BME280;28141;51.120;17.114;2022-12-18T00:41:55;103314.91;;;21.28;23.50
42511;BME280;28141;51.120;17.114;2022-12-18T00:45:11;103321.29;;;21.29;23.90
42511;BME280;28141;51.120;17.114;2022-12-18T00:48:45;103326.66;;;21.30;23.74
42511;BME280;28141;51.120;17.114;2022-12-18T00:51:50;103325.87;;;21.38;23.73
42511;BME280;28141;51.120;17.114;2022-12-18T00:54:53;103328.84;;;21.27;23.59
42511;BME280;28141;51.120;17.114;2022-12-18T00:57:57;103339.97;;;21.35;23.75
42511;BME280;28141;51.120;17.114;2022-12-18T01:01:00;103345.47;;;21.35;23.86
42511;BME280;28141;51.120;17.114;2022-12-18T01:04:04;103357.12;;;21.29;23.73
42511;BME280;28141;51.120;17.114;2022-12-18T01:07:08;103357.83;;;21.31;23.74
42511;BME280;28141;51.120;17.114;2022-12-18T01:10:13;103364.54;;;21.28;23.70
42511;BME280;28141;51.120;17.114;2022-12-18T01:13:16;103365.70;;;21.26;23.75
42511;BME280;28141;51.120;17.114;2022-12-18T01:16:19;103375.80;;;21.35;23.97
42511;BME280;28141;51.120;17.114;2022-12-18T01:19:23;103368.70;;;21.32;23.62
42511;BME280;28141;51.120;17.114;2022-12-18T01:22:26;103369.27;;;21.36;23.76
42511;BME280;28141;51.120;17.114;2022-12-18T01:25:30;103369.69;;;21.41;23.70
42511;BME280;28141;51.120;17.114;2022-12-18T01:28:33;103363.84;;;21.44;23.51
42511;BME280;28141;51.120;17.114;2022-12-18T01:31:36;103377.49;;;21.45;23.65
42511;BME280;28141;51.120;17.114;2022-12-18T01:34:40;103382.13;;;21.45;23.62
42511;BME280;28141;51.120;17.114;2022-12-18T01:37:43;103381.19;;;21.54;23.60
42511;BME280;28141;51.120;17.114;2022-12-18T01:40:46;103387.05;;;21.51;23.54
42511;BME280;28141;51.120;17.114;2022-12-18T01:43:56;103386.42;;;21.57;23.58
42511;BME280;28141;51.120;17.114;2022-12-18T01:47:00;103388.37;;;21.47;23.63
42511;BME280;28141;51.120;17.114;2022-12-18T01:50:14;103389.38;;;21.46;23.76
42511;BME280;28141;51.120;17.114;2022-12-18T01:53:22;103380.97;;;21.47;23.54
42511;BME280;28141;51.120;17.114;2022-12-18T01:56:53;103388.66;;;21.44;23.64
42511;BME280;28141;51.120;17.114;2022-12-18T02:00:00;103392.45;;;21.43;23.78
42511;BME280;28141;51.120;17.114;2022-12-18T02:03:05;103392.56;;;21.51;23.71
42511;BME280;28141;51.120;17.114;2022-12-18T02:06:16;103394.03;;;21.45;23.48
42511;BME280;28141;51.120;17.114;2022-12-18T02:09:28;103387.94;;;21.42;23.50
42511;BME280;28141;51.120;17.114;2022-12-18T02:16:29;103387.41;;;21.38;23.65
42511;BME280;28141;51.120;17.114;2022-12-18T02:26:33;103401.10;;;21.30;23.70
42511;BME280;28141;51.120;17.114;2022-12-18T02:29:24;103406.23;;;21.43;23.74
42511;BME280;28141;51.120;17.114;2022-12-18T02:32:58;103409.85;;;21.43;23.71
42511;BME280;28141;51.120;17.114;2022-12-18T02:36:05;103413.34;;;21.45;23.68
42511;BME280;28141;51.120;17.114;2022-12-18T02:39:12;103422.72;;;21.53;23.89
42511;BME280;28141;51.120;17.114;2022-12-18T02:42:17;103423.29;;;21.56;23.65
42511;BME280;28141;51.120;17.114;2022-12-18T02:45:21;103421.89;;;21.52;23.53
42511;BME280;28141;51.120;17.114;2022-12-18T02:48:32;103419.52;;;21.57;23.58
42511;BME280;28141;51.120;17.114;2022-12-18T02:58:16;103415.95;;;21.47;23.71
42511;BME280;28141;51.120;17.114;2022-12-18T03:08:23;103425.73;;;21.32;23.75
42511;BME280;28141;51.120;17.114;2022-12-18T03:11:32;103427.47;;;21.33;23.86
42511;BME280;28141;51.120;17.114;2022-12-18T03:18:42;103434.20;;;21.21;23.87
42511;BME280;28141;51.120;17.114;2022-12-18T03:21:56;103438.83;;;21.30;23.72
42511;BME280;28141;51.120;17.114;2022-12-18T03:25:00;103449.48;;;21.52;24.08
42511;BME280;28141;51.120;17.114;2022-12-18T03:28:05;103441.53;;;21.67;23.62
42511;BME280;28141;51.120;17.114;2022-12-18T03:31:12;103448.18;;;21.74;23.45
42511;BME280;28141;51.120;17.114;2022-12-18T03:34:21;103442.97;;;21.71;23.46
42511;BME280;28141;51.120;17.114;2022-12-18T03:37:52;103449.35;;;21.71;23.48
42511;BME280;28141;51.120;17.114;2022-12-18T03:51:18;103450.06;;;21.46;23.74
42511;BME280;28141;51.120;17.114;2022-12-18T03:54:23;103451.17;;;21.53;23.51
42511;BME280;28141;51.120;17.114;2022-12-18T03:57:30;103454.84;;;21.44;23.80
42511;BME280;28141;51.120;17.114;2022-12-18T04:00:35;103460.51;;;21.52;23.82
42511;BME280;28141;51.120;17.114;2022-12-18T04:03:39;103468.30;;;21.57;24.03
42511;BME280;28141;51.120;17.114;2022-12-18T04:06:46;103472.29;;;21.72;23.68
42511;BME280;28141;51.120;17.114;2022-12-18T04:09:54;103466.93;;;21.70;23.47
42511;BME280;28141;51.120;17.114;2022-12-18T04:12:59;103461.76;;;21.58;23.61
42511;BME280;28141;51.120;17.114;2022-12-18T04:16:32;103478.26;;;21.67;23.58
42511;BME280;28141;51.120;17.114;2022-12-18T04:19:35;103479.27;;;21.66;23.68
42511;BME280;28141;51.120;17.114;2022-12-18T04:22:38;103482.12;;;21.74;23.48
42511;BME280;28141;51.120;17.114;2022-12-18T04:25:42;103492.14;;;21.75;23.41
42511;BME280;28141;51.120;17.114;2022-12-18T04:28:45;103487.65;;;21.74;23.59
42511;BME280;28141;51.120;17.114;2022-12-18T04:31:48;103496.11;;;21.73;23.53
42511;BME280;28141;51.120;17.114;2022-12-18T04:34:52;103496.85;;;21.65;23.50
42511;BME280;28141;51.120;17.114;2022-12-18T04:37:55;103493.23;;;21.65;23.53
42511;BME280;28141;51.120;17.114;2022-12-18T04:40:58;103496.45;;;21.60;23.43
42511;BME280;28141;51.120;17.114;2022-12-18T04:44:02;103496.80;;;21.47;23.49
42511;BME280;28141;51.120;17.114;2022-12-18T04:47:05;103519.84;;;21.56;23.75
42511;BME280;28141;51.120;17.114;2022-12-18T04:50:38;103522.40;;;21.67;23.64
42511;BME280;28141;51.120;17.114;2022-12-18T04:53:41;103520.80;;;21.65;23.60
42511;BME280;28141;51.120;17.114;2022-12-18T04:56:44;103521.96;;;21.72;23.49
42511;BME280;28141;51.120;17.114;2022-12-18T04:59:48;103527.67;;;21.61;23.70
42511;BME280;28141;51.120;17.114;2022-12-18T05:02:52;103524.56;;;21.73;23.61
42511;BME280;28141;51.120;17.114;2022-12-18T05:05:55;103533.86;;;21.72;23.55
42511;BME280;28141;51.120;17.114;2022-12-18T05:08:59;103532.12;;;21.71;23.62
42511;BME280;28141;51.120;17.114;2022-12-18T05:12:03;103535.90;;;21.70;23.69
42511;BME280;28141;51.120;17.114;2022-12-18T05:15:07;103536.63;;;21.72;23.50
42511;BME280;28141;51.120;17.114;2022-12-18T05:18:10;103536.63;;;21.72;23.62
42511;BME280;28141;51.120;17.114;2022-12-18T05:21:14;103538.04;;;21.76;23.46
42511;BME280;28141;51.120;17.114;2022-12-18T05:24:17;103536.05;;;21.69;23.59
42511;BME280;28141;51.120;17.114;2022-12-18T05:27:48;103542.01;;;21.64;23.51
42511;BME280;28141;51.120;17.114;2022-12-18T05:30:57;103540.41;;;21.71;23.55
42511;BME280;28141;51.120;17.114;2022-12-18T05:34:00;103539.48;;;21.80;23.42
42511;BME280;28141;51.120;17.114;2022-12-18T05:37:03;103544.29;;;21.78;23.43
42511;BME280;28141;51.120;17.114;2022-12-18T05:40:08;103544.21;;;21.88;23.29
42511;BME280;28141;51.120;17.114;2022-12-18T05:43:12;103548.33;;;21.84;23.36
42511;BME280;28141;51.120;17.114;2022-12-18T05:46:17;103551.11;;;21.74;23.33
42511;BME280;28141;51.120;17.114;2022-12-18T05:49:23;103549.07;;;21.76;23.47
42511;BME280;28141;51.120;17.114;2022-12-18T05:52:26;103555.65;;;21.66;23.55
42511;BME280;28141;51.120;17.114;2022-12-18T05:55:33;103562.04;;;21.66;23.44
42511;BME280;28141;51.120;17.114;2022-12-18T05:59:10;103583.27;;;21.56;23.54
42511;BME280;28141;51.120;17.114;2022-12-18T06:02:13;103582.27;;;21.57;23.57
42511;BME280;28141;51.120;17.114;2022-12-18T06:05:17;103594.94;;;21.50;23.74
42511;BME280;28141;51.120;17.114;2022-12-18T06:08:20;103586.77;;;21.58;23.52
42511;BME280;28141;51.120;17.114;2022-12-18T06:11:25;103588.07;;;21.54;23.64
42511;BME280;28141;51.120;17.114;2022-12-18T06:14:29;103599.98;;;21.55;23.50
42511;BME280;28141;51.120;17.114;2022-12-18T06:17:32;103596.50;;;21.62;23.46
42511;BME280;28141;51.120;17.114;2022-12-18T06:20:36;103605.09;;;21.49;23.69
42511;BME280;28141;51.120;17.114;2022-12-18T06:23:44;103608.86;;;21.48;23.68
42511;BME280;28141;51.120;17.114;2022-12-18T06:26:47;103609.45;;;21.52;23.47
42511;BME280;28141;51.120;17.114;2022-12-18T06:29:50;103614.78;;;21.54;23.59
42511;BME280;28141;51.120;17.114;2022-12-18T06:32:53;103618.99;;;21.58;23.63
42511;BME280;28141;51.120;17.114;2022-12-18T06:36:25;103625.52;;;21.57;23.64
42511;BME280;28141;51.120;17.114;2022-12-18T06:39:29;103615.65;;;21.54;23.68
42511;BME280;28141;51.120;17.114;2022-12-18T06:42:32;103626.50;;;21.65;23.55
42511;BME280;28141;51.120;17.114;2022-12-18T06:45:36;103632.64;;;21.59;23.47
42511;BME280;28141;51.120;17.114;2022-12-18T06:48:39;103631.91;;;21.57;23.52
42511;BME280;28141;51.120;17.114;2022-12-18T06:51:43;103632.64;;;21.59;23.73
42511;BME280;28141;51.120;17.114;2022-12-18T06:54:46;103643.09;;;21.56;23.58
42511;BME280;28141;51.120;17.114;2022-12-18T06:57:49;103647.59;;;21.57;23.61
42511;BME280;28141;51.120;17.114;2022-12-18T07:00:52;103648.90;;;21.53;23.60
42511;BME280;28141;51.120;17.114;2022-12-18T07:03:56;103663.39;;;21.64;23.54
42511;BME280;28141;51.120;17.114;2022-12-18T07:07:27;103648.91;;;21.62;23.54
42511;BME280;28141;51.120;17.114;2022-12-18T07:10:30;103643.20;;;21.64;23.49
42511;BME280;28141;51.120;17.114;2022-12-18T07:13:34;103653.84;;;21.59;23.73
42511;BME280;28141;51.120;17.114;2022-12-18T07:16:37;103661.68;;;21.54;23.47
42511;BME280;28141;51.120;17.114;2022-12-18T07:19:41;103664.16;;;21.47;23.47
42511;BME280;28141;51.120;17.114;2022-12-18T07:22:44;103670.12;;;21.52;23.61
42511;BME280;28141;51.120;17.114;2022-12-18T07:25:47;103666.59;;;21.69;23.38
42511;BME280;28141;51.120;17.114;2022-12-18T07:28:54;103675.27;;;21.74;23.54
42511;BME280;28141;51.120;17.114;2022-12-18T07:31:58;103677.64;;;21.69;23.41
42511;BME280;28141;51.120;17.114;2022-12-18T07:35:03;103674.44;;;21.74;23.50
42511;BME280;28141;51.120;17.114;2022-12-18T07:38:06;103672.67;;;21.82;23.21
42511;BME280;28141;51.120;17.114;2022-12-18T07:41:11;103680.80;;;21.74;23.44
42511;BME280;28141;51.120;17.114;2022-12-18T07:44:15;103704.32;;;21.78;23.48
42511;BME280;28141;51.120;17.114;2022-12-18T07:47:46;103701.16;;;21.73;23.43
42511;BME280;28141;51.120;17.114;2022-12-18T07:50:50;103698.09;;;21.67;23.34
42511;BME280;28141;51.120;17.114;2022-12-18T07:53:53;103701.87;;;21.66;23.50
42511;BME280;28141;51.120;17.114;2022-12-18T07:56:56;103689.24;;;21.63;23.33
42511;BME280;28141;51.120;17.114;2022-12-18T07:59:59;103695.94;;;21.70;23.49
42511;BME280;28141;51.120;17.114;2022-12-18T08:03:03;103696.07;;;21.69;23.40
42511;BME280;28141;51.120;17.114;2022-12-18T08:06:08;103701.30;;;21.72;23.58
42511;BME280;28141;51.120;17.114;2022-12-18T08:09:12;103704.62;;;21.75;23.52
42511;BME280;28141;51.120;17.114;2022-12-18T08:12:15;103718.27;;;21.77;23.42
42511;BME280;28141;51.120;17.114;2022-12-18T08:15:19;103711.41;;;21.91;23.27
42511;BME280;28141;51.120;17.114;2022-12-18T08:18:22;103728.38;;;21.96;23.52
42511;BME280;28141;51.120;17.114;2022-12-18T08:21:29;103735.09;;;21.93;23.22
42511;BME280;28141;51.120;17.114;2022-12-18T08:24:33;103742.51;;;21.93;23.16
42511;BME280;28141;51.120;17.114;2022-12-18T08:28:03;103733.94;;;21.86;23.31
42511;BME280;28141;51.120;17.114;2022-12-18T08:31:07;103741.34;;;21.85;23.44
42511;BME280;28141;51.120;17.114;2022-12-18T08:34:11;103747.70;;;21.96;23.07
42511;BME280;28141;51.120;17.114;2022-12-18T08:37:15;103751.94;;;21.90;23.45
42511;BME280;28141;51.120;17.114;2022-12-18T08:40:18;103761.52;;;21.86;23.40
42511;BME280;28141;51.120;17.114;2022-12-18T08:43:21;103761.98;;;21.91;23.29
42511;BME280;28141;51.120;17.114;2022-12-18T08:46:39;103762.54;;;21.85;23.42
42511;BME280;28141;51.120;17.114;2022-12-18T08:49:42;103757.03;;;21.95;23.38
42511;BME280;28141;51.120;17.114;2022-12-18T08:52:46;103771.39;;;22.08;23.33
42511;BME280;28141;51.120;17.114;2022-12-18T08:55:49;103772.12;;;22.10;23.24
42511;BME280;28141;51.120;17.114;2022-12-18T08:59:20;103775.76;;;22.10;23.20
42511;BME280;28141;51.120;17.114;2022-12-18T09:02:25;103766.71;;;22.18;23.10
42511;BME280;28141;51.120;17.114;2022-12-18T09:05:30;103752.02;;;22.27;22.98
42511;BME280;28141;51.120;17.114;2022-12-18T09:08:35;103759.40;;;22.36;23.12
42511;BME280;28141;51.120;17.114;2022-12-18T09:11:39;103762.46;;;22.33;22.72
42511;BME280;28141;51.120;17.114;2022-12-18T09:14:42;103750.11;;;22.37;22.92
42511;BME280;28141;51.120;17.114;2022-12-18T09:18:50;103736.68;;;22.42;22.77
42511;BME280;28141;51.120;17.114;2022-12-18T09:21:59;103726.80;;;22.40;22.99
42511;BME280;28141;51.120;17.114;2022-12-18T09:25:03;103726.98;;;22.38;22.80
42511;BME280;28141;51.120;17.114;2022-12-18T09:28:14;103723.18;;;22.39;22.76
42511;BME280;28141;51.120;17.114;2022-12-18T09:31:20;103718.75;;;22.56;23.17
42511;BME280;28141;51.120;17.114;2022-12-18T09:34:24;103711.57;;;22.63;22.66
42511;BME280;28141;51.120;17.114;2022-12-18T09:37:28;103708.95;;;22.62;22.47
42511;BME280;28141;51.120;17.114;2022-12-18T09:40:39;103700.37;;;22.65;22.94
42511;BME280;28141;51.120;17.114;2022-12-18T09:44:18;103701.48;;;22.72;22.68
42511;BME280;28141;51.120;17.114;2022-12-18T09:47:30;103695.86;;;22.64;22.55
42511;BME280;28141;51.120;17.114;2022-12-18T09:50:39;103698.41;;;22.75;22.89
42511;BME280;28141;51.120;17.114;2022-12-18T09:53:51;103703.19;;;22.82;22.58
42511;BME280;28141;51.120;17.114;2022-12-18T09:56:56;103691.82;;;22.85;22.54
42511;BME280;28141;51.120;17.114;2022-12-18T10:00:25;103698.29;;;22.76;22.56
42511;BME280;28141;51.120;17.114;2022-12-18T10:03:28;103695.62;;;22.84;22.63
42511;BME280;28141;51.120;17.114;2022-12-18T10:16:34;103699.52;;;22.91;22.48
42511;BME280;28141;51.120;17.114;2022-12-18T10:26:38;103718.95;;;23.00;22.52
42511;BME280;28141;51.120;17.114;2022-12-18T10:29:43;103723.07;;;23.13;22.13
42511;BME280;28141;51.120;17.114;2022-12-18T10:32:48;103699.82;;;23.06;22.19
42511;BME280;28141;51.120;17.114;2022-12-18T10:36:20;103705.62;;;23.13;22.31
42511;BME280;28141;51.120;17.114;2022-12-18T10:39:24;103705.12;;;23.17;22.14
42511;BME280;28141;51.120;17.114;2022-12-18T10:42:32;103700.72;;;23.24;22.43
42511;BME280;28141;51.120;17.114;2022-12-18T10:45:35;103712.09;;;23.21;22.32
42511;BME280;28141;51.120;17.114;2022-12-18T10:48:51;103710.03;;;23.23;22.48
42511;BME280;28141;51.120;17.114;2022-12-18T10:55:37;103710.11;;;23.14;22.28
42511;BME280;28141;51.120;17.114;2022-12-18T10:58:41;103707.01;;;23.17;22.24
42511;BME280;28141;51.120;17.114;2022-12-18T11:01:50;103711.93;;;23.23;22.12
42511;BME280;28141;51.120;17.114;2022-12-18T11:04:54;103719.02;;;23.25;22.17
42511;BME280;28141;51.120;17.114;2022-12-18T11:07:59;103716.81;;;23.29;22.32
42511;BME280;28141;51.120;17.114;2022-12-18T11:11:06;103715.56;;;23.23;22.12
42511;BME280;28141;51.120;17.114;2022-12-18T11:14:18;103719.73;;;23.27;22.08
42511;BME280;28141;51.120;17.114;2022-12-18T11:17:50;103730.95;;;23.26;22.18
42511;BME280;28141;51.120;17.114;2022-12-18T11:21:09;103729.47;;;23.32;22.28
42511;BME280;28141;51.120;17.114;2022-12-18T11:24:31;103734.70;;;23.35;22.21
42511;BME280;28141;51.120;17.114;2022-12-18T11:27:24;103742.84;;;23.36;22.17
42511;BME280;28141;51.120;17.114;2022-12-18T11:30:36;103744.16;;;23.32;22.09
42511;BME280;28141;51.120;17.114;2022-12-18T11:33:42;103736.09;;;23.21;22.21
42511;BME280;28141;51.120;17.114;2022-12-18T11:37:13;103747.01;;;23.22;22.17
42511;BME280;28141;51.120;17.114;2022-12-18T11:40:31;103728.28;;;23.34;22.13
42511;BME280;28141;51.120;17.114;2022-12-18T11:47:03;103720.75;;;23.26;22.35
42511;BME280;28141;51.120;17.114;2022-12-18T11:50:43;103727.87;;;23.29;22.18
42511;BME280;28141;51.120;17.114;2022-12-18T11:53:46;103710.25;;;23.30;22.05
42511;BME280;28141;51.120;17.114;2022-12-18T11:56:55;103707.70;;;23.37;22.38
42511;BME280;28141;51.120;17.114;2022-12-18T12:03:23;103715.38;;;23.43;22.15
42511;BME280;28141;51.120;17.114;2022-12-18T12:10:22;103707.88;;;23.35;22.23
42511;BME280;28141;51.120;17.114;2022-12-18T12:23:52;103704.63;;;23.40;21.93
42511;BME280;28141;51.120;17.114;2022-12-18T12:34:00;103697.45;;;23.47;22.29
42511;BME280;28141;51.120;17.114;2022-12-18T12:37:19;103705.75;;;23.47;22.13
42511;BME280;28141;51.120;17.114;2022-12-18T12:40:25;103701.55;;;23.43;21.98
42511;BME280;28141;51.120;17.114;2022-12-18T12:43:56;103699.00;;;23.49;22.04
42511;BME280;28141;51.120;17.114;2022-12-18T12:47:53;103701.65;;;23.51;21.89
42511;BME280;28141;51.120;17.114;2022-12-18T12:50:17;103692.23;;;23.44;22.00
42511;BME280;28141;51.120;17.114;2022-12-18T12:53:29;103703.23;;;23.53;21.90
42511;BME280;28141;51.120;17.114;2022-12-18T12:56:46;103699.59;;;23.53;21.60
42511;BME280;28141;51.120;17.114;2022-12-18T13:00:18;103702.27;;;23.45;22.02
42511;BME280;28141;51.120;17.114;2022-12-18T13:03:35;103709.85;;;23.43;22.17
42511;BME280;28141;51.120;17.114;2022-12-18T13:13:58;103704.16;;;23.26;22.17
42511;BME280;28141;51.120;17.114;2022-12-18T13:16:45;103708.20;;;23.32;22.20
42511;BME280;28141;51.120;17.114;2022-12-18T13:20:02;103692.84;;;23.38;22.05
42511;BME280;28141;51.120;17.114;2022-12-18T13:23:00;103697.29;;;23.30;22.01
42511;BME280;28141;51.120;17.114;2022-12-18T13:29:49;103702.19;;;23.19;22.16
42511;BME280;28141;51.120;17.114;2022-12-18T13:36:16;103699.93;;;23.14;22.18
42511;BME280;28141;51.120;17.114;2022-12-18T13:39:26;103704.58;;;23.14;22.37
42511;BME280;28141;51.120;17.114;2022-12-18T13:42:38;103707.42;;;23.22;22.34
42511;BME280;28141;51.120;17.114;2022-12-18T13:46:27;103717.27;;;23.07;22.31
42511;BME280;28141;51.120;17.114;2022-12-18T13:49:38;103716.41;;;23.06;22.37
42511;BME280;28141;51.120;17.114;2022-12-18T13:52:43;103724.70;;;23.06;22.47
42511;BME280;28141;51.120;17.114;2022-12-18T13:55:47;103723.68;;;23.07;22.31
42511;BME280;28141;51.120;17.114;2022-12-18T14:02:17;103730.01;;;23.00;22.37
42511;BME280;28141;51.120;17.114;2022-12-18T14:05:59;103733.86;;;22.89;22.40
42511;BME280;28141;51.120;17.114;2022-12-18T14:09:03;103733.86;;;22.89;22.42
42511;BME280;28141;51.120;17.114;2022-12-18T14:12:30;103738.67;;;22.87;22.41
42511;BME280;28141;51.120;17.114;2022-12-18T14:15:39;103738.28;;;22.82;22.55
42511;BME280;28141;51.120;17.114;2022-12-18T14:18:57;103744.66;;;22.82;22.54
42511;BME280;28141;51.120;17.114;2022-12-18T14:22:01;103756.58;;;22.83;22.68
42511;BME280;28141;51.120;17.114;2022-12-18T14:25:31;103763.99;;;22.82;22.52
42511;BME280;28141;51.120;17.114;2022-12-18T14:28:43;103754.30;;;22.78;22.38
42511;BME280;28141;51.120;17.114;2022-12-18T14:35:12;103761.93;;;22.57;22.71
42511;BME280;28141;51.120;17.114;2022-12-18T14:38:24;103768.29;;;22.67;22.65
42511;BME280;28141;51.120;17.114;2022-12-18T14:41:53;103780.54;;;22.55;22.75
42511;BME280;28141;51.120;17.114;2022-12-18T14:48:21;103779.73;;;22.45;22.79
42511;BME280;28141;51.120;17.114;2022-12-18T14:51:30;103774.24;;;22.35;23.12
42511;BME280;28141;51.120;17.114;2022-12-18T14:54:35;103773.38;;;22.35;22.83
42511;BME280;28141;51.120;17.114;2022-12-18T14:57:40;103774.50;;;22.42;22.95
42511;BME280;28141;51.120;17.114;2022-12-18T15:01:26;103776.13;;;22.35;22.90
42511;BME280;28141;51.120;17.114;2022-12-18T15:04:35;103776.89;;;22.17;22.85
42511;BME280;28141;51.120;17.114;2022-12-18T15:07:47;103775.61;;;22.12;23.05
42511;BME280;28141;51.120;17.114;2022-12-18T15:10:50;103774.59;;;22.13;23.07
42511;BME280;28141;51.120;17.114;2022-12-18T15:13:54;103776.63;;;22.11;23.36
42511;BME280;28141;51.120;17.114;2022-12-18T15:16:59;103765.32;;;22.04;23.07
42511;BME280;28141;51.120;17.114;2022-12-18T15:20:09;103770.83;;;22.14;23.28
42511;BME280;28141;51.120;17.114;2022-12-18T15:26:24;103764.12;;;22.07;23.16
42511;BME280;28141;51.120;17.114;2022-12-18T15:33:22;103782.75;;;21.76;23.32
42511;BME280;28141;51.120;17.114;2022-12-18T15:36:25;103783.46;;;21.88;23.22
42511;BME280;28141;51.120;17.114;2022-12-18T15:39:35;103775.18;;;21.88;23.27
42511;BME280;28141;51.120;17.114;2022-12-18T15:42:39;103776.93;;;21.89;23.31
42511;BME280;28141;51.120;17.114;2022-12-18T15:46:25;103773.91;;;21.72;23.37
42511;BME280;28141;51.120;17.114;2022-12-18T15:49:35;103755.62;;;21.71;23.46
42511;BME280;28141;51.120;17.114;2022-12-18T15:52:43;103749.06;;;21.82;23.56
42511;BME280;28141;51.120;17.114;2022-12-18T15:55:47;103741.20;;;21.87;23.43
42511;BME280;28141;51.120;17.114;2022-12-18T15:59:08;103738.04;;;21.72;23.46
42511;BME280;28141;51.120;17.114;2022-12-18T16:02:42;103740.06;;;21.70;23.42
42511;BME280;28141;51.120;17.114;2022-12-18T16:05:46;103721.34;;;21.74;23.26
42511;BME280;28141;51.120;17.114;2022-12-18T16:08:49;103712.74;;;21.77;23.52
42511;BME280;28141;51.120;17.114;2022-12-18T16:11:53;103722.31;;;21.92;23.37
42511;BME280;28141;51.120;17.114;2022-12-18T16:14:56;103733.35;;;21.92;23.14
42511;BME280;28141;51.120;17.114;2022-12-18T16:17:59;103726.39;;;21.78;23.24
42511;BME280;28141;51.120;17.114;2022-12-18T16:21:03;103729.45;;;21.75;23.30
42511;BME280;28141;51.120;17.114;2022-12-18T16:27:25;103733.12;;;21.57;23.38
42511;BME280;28141;51.120;17.114;2022-12-18T16:30:30;103729.05;;;21.61;23.54
42511;BME280;28141;51.120;17.114;2022-12-18T16:33:34;103715.99;;;21.63;23.54
42511;BME280;28141;51.120;17.114;2022-12-18T16:36:37;103722.95;;;21.57;23.61
42511;BME280;28141;51.120;17.114;2022-12-18T16:39:41;103719.46;;;21.55;23.59
42511;BME280;28141;51.120;17.114;2022-12-18T16:43:13;103724.72;;;21.39;23.53
42511;BME280;28141;51.120;17.114;2022-12-18T16:46:16;103724.72;;;21.39;23.58
42511;BME280;28141;51.120;17.114;2022-12-18T16:49:19;103730.09;;;21.40;23.53
42511;BME280;28141;51.120;17.114;2022-12-18T16:52:24;103713.09;;;21.35;23.61
42511;BME280;28141;51.120;17.114;2022-12-18T16:55:28;103721.79;;;21.31;23.41
42511;BME280;28141;51.120;17.114;2022-12-18T16:58:31;103724.85;;;21.28;23.54
42511;BME280;28141;51.120;17.114;2022-12-18T17:01:35;103723.24;;;21.35;23.65
42511;BME280;28141;51.120;17.114;2022-12-18T17:04:38;103722.23;;;21.36;23.77
42511;BME280;28141;51.120;17.114;2022-12-18T17:07:42;103717.14;;;21.31;23.35
42511;BME280;28141;51.120;17.114;2022-12-18T17:10:45;103722.62;;;21.12;23.69
42511;BME280;28141;51.120;17.114;2022-12-18T17:13:49;103733.05;;;20.99;23.77
42511;BME280;28141;51.120;17.114;2022-12-18T17:16:53;103744.80;;;21.01;23.91
42511;BME280;28141;51.120;17.114;2022-12-18T17:19:58;103734.92;;;20.89;23.58
42511;BME280;28141;51.120;17.114;2022-12-18T17:23:02;103725.76;;;20.78;23.94
42511;BME280;28141;51.120;17.114;2022-12-18T17:26:05;103726.34;;;20.82;23.89
42511;BME280;28141;51.120;17.114;2022-12-18T17:29:14;103724.61;;;20.81;23.70
42511;BME280;28141;51.120;17.114;2022-12-18T17:32:46;103727.48;;;20.70;23.92
42511;BME280;28141;51.120;17.114;2022-12-18T17:35:49;103734.84;;;20.60;23.71
42511;BME280;28141;51.120;17.114;2022-12-18T17:38:55;103735.01;;;20.68;24.01
42511;BME280;28141;51.120;17.114;2022-12-18T17:41:59;103739.21;;;20.62;24.22
42511;BME280;28141;51.120;17.114;2022-12-18T17:45:03;103740.32;;;20.50;24.06
42511;BME280;28141;51.120;17.114;2022-12-18T17:48:09;103727.59;;;20.59;24.08
42511;BME280;28141;51.120;17.114;2022-12-18T17:51:16;103729.34;;;20.60;24.12
42511;BME280;28141;51.120;17.114;2022-12-18T17:54:19;103736.48;;;20.72;24.40
42511;BME280;28141;51.120;17.114;2022-12-18T17:57:23;103742.28;;;20.78;23.80
42511;BME280;28141;51.120;17.114;2022-12-18T18:00:26;103736.23;;;20.85;23.75
42511;BME280;28141;51.120;17.114;2022-12-18T18:03:32;103734.35;;;20.85;23.80
42511;BME280;28141;51.120;17.114;2022-12-18T18:06:36;103739.37;;;20.70;23.85
42511;BME280;28141;51.120;17.114;2022-12-18T18:09:39;103740.49;;;20.58;23.81
42511;BME280;28141;51.120;17.114;2022-12-18T18:12:43;103744.83;;;20.51;23.88
42511;BME280;28141;51.120;17.114;2022-12-18T18:16:23;103758.01;;;20.27;23.97